createdAt,value
2022-07-26T00:01:50.109Z,52.21
2022-07-26T00:04:17.887Z,52.69
2022-07-26T00:06:45.802Z,52.72
2022-07-26T00:09:13.464Z,52.81
2022-07-26T00:11:41.181Z,53.13
2022-07-26T00:14:09.214Z,53.50
2022-07-26T00:16:38.303Z,53.83
2022-07-26T00:19:08.679Z,54.11
2022-07-26T00:21:40.680Z,54.29
2022-07-26T00:24:09.457Z,53.37
2022-07-26T00:26:37.623Z,53.08
2022-07-26T00:29:07.030Z,53.17
2022-07-26T00:31:35.147Z,53.01
2022-07-26T00:34:02.865Z,52.75
2022-07-26T00:36:30.896Z,52.67
2022-07-26T00:38:58.579Z,52.52
2022-07-26T00:41:26.263Z,52.61
2022-07-26T00:43:59.280Z,51.97
2022-07-26T00:46:27.973Z,51.98
2022-07-26T00:48:55.861Z,52.00
2022-07-26T00:51:24.236Z,51.96
2022-07-26T00:53:52.193Z,51.82
2022-07-26T00:56:20.000Z,51.54
2022-07-26T00:58:47.741Z,51.16
2022-07-26T01:01:15.596Z,51.04
2022-07-26T01:03:43.378Z,50.96
2022-07-26T01:06:11.203Z,50.86
2022-07-26T01:08:39.271Z,50.90
2022-07-26T01:11:07.041Z,51.00
2022-07-26T01:13:35.769Z,51.04
2022-07-26T01:16:04.331Z,51.05
2022-07-26T01:18:32.159Z,51.12
2022-07-26T01:21:13.256Z,51.26
2022-07-26T01:23:41.654Z,51.22
2022-07-26T01:26:09.728Z,51.31
2022-07-26T01:28:40.227Z,51.33
2022-07-26T01:31:09.647Z,51.30
2022-07-26T01:33:37.432Z,51.30
2022-07-26T01:36:05.291Z,51.16
2022-07-26T01:38:32.913Z,51.07
2022-07-26T01:41:00.679Z,51.01
2022-07-26T01:43:28.348Z,50.94
2022-07-26T01:45:56.681Z,50.83
2022-07-26T01:48:24.410Z,50.71
2022-07-26T01:50:52.104Z,50.71
2022-07-26T01:53:19.874Z,50.74
2022-07-26T01:55:47.583Z,51.08
2022-07-26T01:58:15.359Z,51.13
2022-07-26T02:00:43.222Z,51.58
2022-07-26T02:03:11.054Z,51.73
2022-07-26T02:05:38.764Z,52.87
2022-07-26T02:08:06.917Z,52.95
2022-07-26T02:10:53.551Z,52.66
2022-07-26T02:13:22.814Z,52.52
2022-07-26T02:15:50.611Z,52.59
2022-07-26T02:18:18.394Z,52.52
2022-07-26T02:20:46.077Z,52.68
2022-07-26T02:23:14.138Z,52.75
2022-07-26T02:25:41.861Z,53.06
2022-07-26T02:28:09.567Z,53.16
2022-07-26T02:30:37.362Z,52.79
2022-07-26T02:33:07.163Z,52.70
2022-07-26T02:35:34.971Z,52.65
2022-07-26T02:38:06.283Z,52.63
2022-07-26T02:40:34.801Z,53.14
2022-07-26T02:43:02.769Z,53.55
2022-07-26T02:45:30.530Z,53.72
2022-07-26T02:47:58.334Z,53.72
2022-07-26T02:50:27.995Z,53.85
2022-07-26T02:52:56.147Z,54.18
2022-07-26T02:55:26.615Z,54.55
2022-07-26T02:57:54.486Z,54.56
2022-07-26T03:00:27.032Z,54.44
2022-07-26T03:02:54.875Z,54.55
2022-07-26T03:05:22.682Z,54.48
2022-07-26T03:07:50.539Z,54.60
2022-07-26T03:10:18.243Z,54.78
2022-07-26T03:12:45.956Z,54.52
2022-07-26T03:15:13.860Z,54.52
2022-07-26T03:17:41.549Z,54.66
2022-07-26T03:20:10.126Z,54.88
2022-07-26T03:22:37.815Z,55.12
2022-07-26T03:25:06.522Z,55.33
2022-07-26T03:27:34.488Z,55.53
2022-07-26T03:30:02.410Z,56.01
2022-07-26T03:32:30.153Z,56.62
2022-07-26T03:34:57.801Z,56.88
2022-07-26T03:37:25.638Z,57.23
2022-07-26T03:40:13.466Z,57.67
2022-07-26T03:42:41.134Z,58.22
2022-07-26T03:45:10.333Z,59.08
2022-07-26T03:47:38.419Z,59.61
2022-07-26T03:50:07.441Z,59.75
2022-07-26T03:52:35.192Z,60.21
2022-07-26T03:55:22.839Z,61.07
2022-07-26T03:57:50.563Z,61.60
2022-07-26T04:00:18.482Z,62.09
2022-07-26T04:02:46.252Z,62.77
2022-07-26T04:05:14.061Z,62.57
2022-07-26T04:07:52.546Z,62.91
2022-07-26T04:10:22.585Z,63.32
2022-07-26T04:12:53.164Z,63.89
2022-07-26T04:15:22.316Z,65.00
2022-07-26T04:17:50.176Z,64.91
2022-07-26T04:20:18.493Z,64.90
2022-07-26T04:22:46.346Z,65.18
2022-07-26T04:25:14.135Z,64.79
2022-07-26T04:27:41.814Z,65.22
2022-07-26T04:30:14.787Z,65.32
2022-07-26T04:32:43.215Z,65.52
2022-07-26T04:35:13.570Z,65.97
2022-07-26T04:37:45.459Z,67.13
2022-07-26T04:40:21.236Z,66.81
2022-07-26T04:42:51.033Z,67.97
2022-07-26T04:45:19.563Z,68.07
2022-07-26T04:47:52.338Z,67.54
2022-07-26T04:50:21.792Z,68.22
2022-07-26T04:52:50.463Z,69.66
2022-07-26T04:55:19.115Z,70.06
2022-07-26T04:57:47.794Z,69.77
2022-07-26T05:00:23.310Z,69.38
2022-07-26T05:02:54.393Z,69.65
2022-07-26T05:05:23.382Z,69.66
2022-07-26T05:07:54.354Z,69.86
2022-07-26T05:10:22.850Z,70.22
2022-07-26T05:12:50.636Z,70.23
2022-07-26T05:15:18.816Z,70.62
2022-07-26T05:17:46.633Z,70.46
2022-07-26T05:20:17.350Z,70.51
2022-07-26T05:22:45.388Z,71.71
2022-07-26T05:25:13.087Z,71.89
2022-07-26T05:27:42.724Z,72.45
2022-07-26T05:30:11.832Z,72.37
2022-07-26T05:32:40.067Z,73.13
2022-07-26T05:35:08.867Z,73.99
2022-07-26T05:37:37.271Z,73.31
2022-07-26T05:40:06.573Z,73.33
2022-07-26T05:42:34.298Z,73.51
2022-07-26T05:45:01.999Z,73.27
2022-07-26T05:47:31.166Z,74.41
2022-07-26T05:49:58.943Z,76.51
2022-07-26T05:52:26.710Z,77.55
2022-07-26T05:54:54.351Z,76.86
2022-07-26T05:57:22.052Z,76.96
2022-07-26T05:59:49.768Z,77.83
2022-07-26T06:02:17.492Z,78.40
2022-07-26T06:04:45.303Z,78.42
2022-07-26T06:07:15.423Z,78.41
2022-07-26T06:09:43.475Z,78.65
2022-07-26T06:12:11.426Z,79.35
2022-07-26T06:14:39.306Z,79.05
2022-07-26T06:17:07.039Z,79.26
2022-07-26T06:19:35.080Z,79.28
2022-07-26T06:22:02.818Z,79.01
2022-07-26T06:24:30.989Z,79.48
2022-07-26T06:27:04.768Z,79.43
2022-07-26T06:29:33.203Z,79.18
2022-07-26T06:32:01.110Z,79.02
2022-07-26T06:34:29.165Z,78.94
2022-07-26T06:36:57.032Z,78.65
2022-07-26T06:39:24.709Z,78.29
2022-07-26T06:41:52.473Z,78.20
2022-07-26T06:44:20.170Z,78.19
2022-07-26T06:46:47.857Z,78.23
2022-07-26T06:49:19.413Z,77.77
2022-07-26T06:51:49.701Z,77.35
2022-07-26T06:54:17.426Z,77.19
2022-07-26T06:56:45.671Z,77.16
2022-07-26T06:59:13.397Z,76.98
2022-07-26T07:01:57.956Z,76.96
2022-07-26T07:04:31.659Z,76.87
2022-07-26T07:07:05.771Z,76.46
2022-07-26T07:09:34.994Z,76.63
2022-07-26T07:12:10.465Z,76.38
2022-07-26T07:14:39.508Z,75.77
2022-07-26T07:17:11.159Z,75.87
2022-07-26T07:19:40.913Z,75.55
2022-07-26T07:22:12.829Z,75.38
2022-07-26T07:24:41.010Z,75.40
2022-07-26T07:27:09.190Z,75.12
2022-07-26T07:29:38.983Z,75.01
2022-07-26T07:32:09.298Z,75.22
2022-07-26T07:34:47.551Z,75.16
2022-07-26T07:37:15.855Z,75.01
2022-07-26T07:39:43.697Z,74.81
2022-07-26T07:42:11.387Z,74.38
2022-07-26T07:44:39.083Z,74.11
2022-07-26T07:47:07.430Z,73.88
2022-07-26T07:49:35.325Z,73.12
2022-07-26T07:52:03.054Z,73.02
2022-07-26T07:54:30.877Z,72.48
2022-07-26T07:57:00.005Z,72.52
2022-07-26T07:59:28.448Z,72.71
2022-07-26T08:01:56.870Z,72.70
2022-07-26T08:04:25.025Z,72.71
2022-07-26T08:06:52.826Z,72.79
2022-07-26T08:09:21.233Z,74.09
2022-07-26T08:11:50.770Z,73.07
2022-07-26T08:14:20.058Z,72.85
2022-07-26T08:16:48.088Z,72.73
2022-07-26T08:19:16.362Z,72.45
2022-07-26T08:21:47.133Z,72.12
2022-07-26T08:24:14.979Z,71.93
2022-07-26T08:26:42.696Z,71.45
2022-07-26T08:29:10.606Z,71.16
2022-07-26T08:31:38.710Z,71.29
2022-07-26T08:34:06.488Z,71.08
2022-07-26T08:36:34.184Z,71.06
2022-07-26T08:39:02.630Z,71.16
2022-07-26T08:41:31.653Z,70.80
2022-07-26T08:44:09.894Z,70.64
2022-07-26T08:46:40.255Z,69.98
2022-07-26T08:49:11.292Z,70.05
2022-07-26T08:51:45.082Z,69.34
2022-07-26T08:54:15.451Z,69.26
2022-07-26T08:56:51.119Z,69.56
2022-07-26T08:59:22.373Z,69.67
2022-07-26T09:01:55.408Z,69.44
2022-07-26T09:04:32.709Z,68.74
2022-07-26T09:07:10.288Z,69.93
2022-07-26T09:09:40.835Z,69.95
2022-07-26T09:12:17.685Z,69.43
2022-07-26T09:14:48.131Z,68.84
2022-07-26T09:17:21.216Z,68.85
2022-07-26T09:20:08.704Z,68.60
2022-07-26T09:22:37.773Z,68.36
2022-07-26T09:25:21.841Z,68.21
2022-07-26T09:27:50.036Z,67.55
2022-07-26T09:30:17.939Z,67.57
2022-07-26T09:33:01.065Z,66.92
2022-07-26T09:35:50.489Z,64.87
2022-07-26T09:38:17.853Z,65.22
2022-07-26T09:40:47.324Z,64.96
2022-07-26T09:43:23.794Z,63.85
2022-07-26T09:46:06.138Z,63.43
2022-07-26T09:48:59.401Z,61.99
2022-07-26T09:51:40.135Z,62.71
2022-07-26T09:54:09.004Z,62.07
2022-07-26T09:57:03.708Z,62.33
2022-07-26T09:59:31.867Z,62.14
2022-07-26T10:02:00.961Z,62.69
2022-07-26T10:04:28.830Z,62.81
2022-07-26T10:06:59.288Z,62.73
2022-07-26T10:09:41.475Z,62.77
2022-07-26T10:12:13.791Z,62.79
2022-07-26T10:14:49.013Z,62.11
2022-07-26T10:17:35.285Z,61.02
2022-07-26T10:20:17.660Z,61.80
2022-07-26T10:22:51.598Z,62.30
2022-07-26T10:25:19.436Z,64.83
2022-07-26T10:27:49.655Z,65.12
2022-07-26T10:30:17.241Z,64.90
2022-07-26T10:33:03.087Z,63.94
2022-07-26T10:35:45.607Z,64.60
2022-07-26T10:38:23.874Z,65.18
2022-07-26T10:41:03.671Z,65.08
2022-07-26T10:43:41.050Z,64.11
2022-07-26T10:46:21.556Z,64.08
2022-07-26T10:49:00.366Z,65.03
2022-07-26T10:51:30.619Z,64.46
2022-07-26T10:54:07.873Z,64.30
2022-07-26T10:56:36.271Z,64.14
2022-07-26T10:59:05.277Z,64.14
2022-07-26T11:01:38.584Z,64.24
2022-07-26T11:04:20.488Z,64.43
2022-07-26T11:06:48.239Z,64.18
2022-07-26T11:09:17.087Z,63.71
2022-07-26T11:11:47.127Z,63.19
2022-07-26T11:14:18.180Z,62.71
2022-07-26T11:16:51.064Z,61.86
2022-07-26T11:19:21.404Z,61.57
2022-07-26T11:21:59.998Z,61.68
2022-07-26T11:24:28.680Z,61.72
2022-07-26T11:26:57.549Z,62.05
2022-07-26T11:29:38.188Z,62.26
2022-07-26T11:32:17.745Z,62.77
2022-07-26T11:34:46.510Z,62.35
2022-07-26T11:37:15.133Z,61.91
2022-07-26T11:39:42.851Z,61.53
2022-07-26T11:42:13.183Z,61.56
2022-07-26T11:44:45.612Z,61.54
2022-07-26T11:47:25.231Z,61.86
2022-07-26T11:52:41.269Z,60.92
2022-07-26T11:55:09.913Z,60.75
2022-07-26T11:57:37.687Z,60.45
2022-07-26T12:00:06.472Z,60.14
2022-07-26T12:02:34.291Z,59.86
2022-07-26T12:05:23.376Z,59.77
2022-07-26T12:08:05.965Z,59.46
2022-07-26T12:10:33.990Z,59.14
2022-07-26T12:13:16.138Z,59.00
2022-07-26T12:15:53.047Z,57.13
2022-07-26T12:18:31.949Z,57.88
2022-07-26T12:21:07.527Z,58.28
2022-07-26T12:23:56.132Z,58.39
2022-07-26T12:26:29.345Z,57.88
2022-07-26T12:28:58.287Z,57.43
2022-07-26T12:31:30.856Z,57.49
2022-07-26T12:33:59.783Z,57.36
2022-07-26T12:36:30.065Z,57.52
2022-07-26T12:39:00.983Z,57.31
2022-07-26T12:41:37.295Z,56.96
2022-07-26T12:44:07.348Z,56.69
2022-07-26T12:46:37.070Z,56.81
2022-07-26T12:49:05.745Z,56.77
2022-07-26T12:51:34.406Z,56.66
2022-07-26T12:54:02.200Z,56.51
2022-07-26T12:56:30.005Z,56.56
2022-07-26T12:59:02.183Z,56.77
2022-07-26T13:01:31.319Z,56.65
2022-07-26T13:03:59.295Z,56.69
2022-07-26T13:06:27.056Z,56.68
2022-07-26T13:08:54.760Z,56.84
2022-07-26T13:11:22.445Z,57.12
2022-07-26T13:13:50.694Z,57.15
2022-07-26T13:16:18.503Z,57.03
2022-07-26T13:18:47.173Z,56.72
2022-07-26T13:21:14.904Z,56.56
2022-07-26T13:23:42.688Z,56.12
2022-07-26T13:26:10.729Z,55.87
2022-07-26T13:28:38.756Z,55.92
2022-07-26T13:31:07.212Z,56.06
2022-07-26T13:33:35.027Z,55.80
2022-07-26T13:36:02.824Z,55.52
2022-07-26T13:38:34.531Z,55.67
2022-07-26T13:41:06.159Z,56.06
2022-07-26T13:43:33.919Z,55.96
2022-07-26T13:46:01.807Z,55.99
2022-07-26T13:48:30.081Z,55.95
2022-07-26T13:50:58.735Z,55.71
2022-07-26T13:53:26.992Z,55.70
2022-07-26T13:55:54.731Z,55.75
2022-07-26T13:58:22.955Z,55.48
2022-07-26T14:00:50.746Z,55.07
2022-07-26T14:03:18.583Z,55.06
2022-07-26T14:05:46.438Z,54.82
2022-07-26T14:08:14.218Z,54.52
2022-07-26T14:10:42.433Z,54.85
2022-07-26T14:13:10.538Z,55.35
2022-07-26T14:15:38.280Z,55.83
2022-07-26T14:18:06.022Z,56.01
2022-07-26T14:20:33.900Z,56.12
2022-07-26T14:23:01.730Z,55.88
2022-07-26T14:25:29.817Z,55.82
2022-07-26T14:28:01.201Z,55.84
2022-07-26T14:30:28.965Z,55.68
2022-07-26T14:32:56.710Z,55.13
2022-07-26T14:35:24.406Z,55.00
2022-07-26T14:37:52.152Z,55.06
2022-07-26T14:40:19.929Z,55.10
2022-07-26T14:42:47.690Z,54.87
2022-07-26T14:45:16.183Z,54.53
2022-07-26T14:47:44.335Z,54.70
2022-07-26T14:50:13.662Z,55.07
2022-07-26T14:52:45.000Z,55.32
2022-07-26T14:55:13.495Z,55.04
2022-07-26T14:57:42.720Z,55.00
2022-07-26T15:00:12.955Z,55.03
2022-07-26T15:02:46.067Z,54.79
2022-07-26T15:05:15.610Z,54.76
2022-07-26T15:07:44.298Z,54.56
2022-07-26T15:10:14.348Z,54.55
2022-07-26T15:12:43.515Z,54.53
2022-07-26T15:15:12.080Z,54.45
2022-07-26T15:17:39.787Z,53.85
2022-07-26T15:20:08.366Z,53.54
2022-07-26T15:22:36.272Z,53.64
2022-07-26T15:25:04.561Z,53.85
2022-07-26T15:27:32.382Z,54.17
2022-07-26T15:30:04.263Z,54.24
2022-07-26T15:32:33.649Z,54.29
2022-07-26T15:35:01.711Z,54.22
2022-07-26T15:37:29.953Z,54.24
2022-07-26T15:39:58.056Z,54.43
2022-07-26T15:42:25.796Z,54.31
2022-07-26T15:44:53.501Z,53.92
2022-07-26T15:47:52.195Z,53.98
2022-07-26T15:50:11.439Z,53.81
2022-07-26T15:52:41.169Z,53.66
2022-07-26T15:55:10.117Z,53.26
2022-07-26T15:57:37.905Z,53.11
2022-07-26T16:00:10.938Z,53.33
2022-07-26T16:02:41.103Z,53.69
2022-07-26T16:05:09.367Z,53.95
2022-07-26T16:07:37.110Z,54.12
2022-07-26T16:10:05.641Z,54.05
2022-07-26T16:12:34.237Z,54.13
2022-07-26T16:15:02.146Z,53.92
2022-07-26T16:17:29.915Z,53.81
2022-07-26T16:19:57.610Z,53.27
2022-07-26T16:22:25.460Z,53.03
2022-07-26T16:24:53.237Z,52.65
2022-07-26T16:27:20.991Z,52.75
2022-07-26T16:29:52.124Z,52.64
2022-07-26T16:32:22.208Z,52.04
2022-07-26T16:34:50.114Z,51.39
2022-07-26T16:37:17.996Z,50.58
2022-07-26T16:39:45.690Z,51.28
2022-07-26T16:42:13.444Z,51.56
2022-07-26T16:44:41.208Z,51.67
2022-07-26T16:47:09.086Z,51.87
2022-07-26T16:49:36.927Z,51.83
2022-07-26T16:52:04.989Z,51.60
2022-07-26T16:54:33.965Z,51.23
2022-07-26T16:57:02.150Z,51.13
2022-07-26T16:59:29.952Z,51.38
2022-07-26T17:01:59.696Z,51.64
2022-07-26T17:04:30.470Z,52.01
2022-07-26T17:07:22.643Z,51.56
2022-07-26T17:09:45.883Z,51.57
2022-07-26T17:12:13.612Z,51.70
2022-07-26T17:14:41.282Z,51.89
2022-07-26T17:17:09.095Z,51.92
2022-07-26T17:19:36.755Z,51.81
2022-07-26T17:22:04.987Z,51.68
2022-07-26T17:24:32.756Z,51.91
2022-07-26T17:27:01.986Z,51.52
2022-07-26T17:29:29.714Z,51.18
2022-07-26T17:31:57.486Z,51.41
2022-07-26T17:34:25.328Z,51.52
2022-07-26T17:37:00.989Z,51.55
2022-07-26T17:39:51.682Z,51.07
2022-07-26T17:42:17.346Z,51.06
2022-07-26T17:44:45.311Z,51.01
2022-07-26T17:47:27.361Z,51.36
2022-07-26T17:49:57.142Z,51.18
2022-07-26T17:52:26.654Z,50.33
2022-07-26T17:54:55.098Z,49.81
2022-07-26T17:57:22.753Z,49.80
2022-07-26T17:59:50.504Z,50.23
2022-07-26T18:02:18.411Z,50.53
2022-07-26T18:04:46.121Z,50.58
2022-07-26T18:07:13.906Z,50.52
2022-07-26T18:09:41.651Z,50.47
2022-07-26T18:12:09.446Z,50.48
2022-07-26T18:14:38.881Z,50.46
2022-07-26T18:17:06.667Z,50.61
2022-07-26T18:19:34.759Z,51.14
2022-07-26T18:22:05.940Z,51.45
2022-07-26T18:24:34.141Z,51.59
2022-07-26T18:27:01.852Z,51.83
2022-07-26T18:29:29.614Z,52.14
2022-07-26T18:32:01.288Z,52.33
2022-07-26T18:34:29.689Z,52.54
2022-07-26T18:36:57.500Z,52.87
2022-07-26T18:39:25.242Z,53.25
2022-07-26T18:42:00.522Z,53.74
2022-07-26T18:44:28.656Z,54.04
2022-07-26T18:46:57.107Z,54.30
2022-07-26T18:49:30.942Z,54.45
2022-07-26T18:52:05.821Z,54.68
2022-07-26T18:54:36.570Z,54.75
2022-07-26T18:57:04.761Z,54.87
2022-07-26T18:59:32.706Z,54.94
2022-07-26T19:02:00.870Z,55.11
2022-07-26T19:04:29.756Z,55.49
2022-07-26T19:06:57.577Z,55.92
2022-07-26T19:09:25.316Z,56.13
2022-07-26T19:11:53.019Z,56.28
2022-07-26T19:14:20.742Z,56.47
2022-07-26T19:16:48.531Z,56.62
2022-07-26T19:19:16.591Z,56.66
2022-07-26T19:21:49.476Z,56.65
2022-07-26T19:24:17.163Z,56.46
2022-07-26T19:26:45.200Z,55.99
2022-07-26T19:29:13.465Z,55.45
2022-07-26T19:31:43.008Z,54.82
2022-07-26T19:34:10.738Z,53.97
2022-07-26T19:36:38.747Z,53.25
2022-07-26T19:39:07.038Z,52.35
2022-07-26T19:41:35.278Z,52.09
2022-07-26T19:44:03.164Z,51.62
2022-07-26T19:46:31.080Z,51.09
2022-07-26T19:48:59.039Z,50.78
2022-07-26T19:51:26.729Z,50.81
2022-07-26T19:53:54.476Z,51.02
2022-07-26T19:56:22.254Z,51.13
2022-07-26T19:58:50.564Z,50.73
2022-07-26T20:01:18.350Z,49.90
2022-07-26T20:03:46.153Z,48.92
2022-07-26T20:06:13.861Z,48.20
2022-07-26T20:08:41.653Z,47.14
2022-07-26T20:11:09.585Z,46.51
2022-07-26T20:13:37.319Z,45.84
2022-07-26T20:16:06.426Z,45.47
2022-07-26T20:18:34.255Z,46.01
2022-07-26T20:21:01.943Z,46.19
2022-07-26T20:23:30.002Z,45.90
2022-07-26T20:25:57.851Z,46.21
2022-07-26T20:28:25.710Z,46.65
2022-07-26T20:30:55.100Z,46.23
2022-07-26T20:33:22.922Z,46.23
2022-07-26T20:35:54.872Z,45.91
2022-07-26T20:38:23.655Z,46.11
2022-07-26T20:40:51.498Z,46.33
2022-07-26T20:43:19.246Z,45.96
2022-07-26T20:45:47.266Z,46.05
2022-07-26T20:48:15.021Z,45.84
2022-07-26T20:50:42.732Z,45.85
2022-07-26T20:53:10.614Z,45.55
2022-07-26T20:55:38.269Z,45.72
2022-07-26T20:58:06.056Z,46.16
2022-07-26T21:00:33.778Z,46.12
2022-07-26T21:03:01.562Z,46.02
2022-07-26T21:05:32.472Z,45.84
2022-07-26T21:08:00.554Z,45.95
2022-07-26T21:10:31.575Z,46.33
2022-07-26T21:13:01.377Z,46.42
2022-07-26T21:15:30.584Z,46.72
2022-07-26T21:17:59.392Z,46.88
2022-07-26T21:20:27.077Z,47.27
2022-07-26T21:23:03.661Z,47.16
2022-07-26T21:25:40.988Z,46.65
2022-07-26T21:28:08.677Z,46.63
2022-07-26T21:30:36.379Z,47.00
2022-07-26T21:33:04.204Z,47.12
2022-07-26T21:35:33.309Z,47.24
2022-07-26T21:38:01.011Z,46.52
2022-07-26T21:40:28.713Z,46.10
2022-07-26T21:42:56.401Z,46.50
2022-07-26T21:45:24.070Z,47.31
2022-07-26T21:47:51.845Z,47.13
2022-07-26T21:50:19.545Z,46.94
2022-07-26T21:52:47.375Z,46.95
2022-07-26T21:55:17.772Z,46.85
2022-07-26T21:57:46.207Z,46.75
2022-07-26T22:00:16.385Z,46.50
2022-07-26T22:02:44.135Z,47.14
2022-07-26T22:05:30.262Z,47.34
2022-07-26T22:07:58.011Z,47.30
2022-07-26T22:10:25.726Z,47.13
2022-07-26T22:12:53.508Z,47.09
2022-07-26T22:15:22.116Z,47.01
2022-07-26T22:17:49.879Z,46.85
2022-07-26T22:20:17.586Z,46.92
2022-07-26T22:22:45.266Z,47.06
2022-07-26T22:25:13.151Z,46.98
2022-07-26T22:27:40.801Z,46.95
2022-07-26T22:30:09.277Z,47.06
2022-07-26T22:32:36.901Z,47.33
2022-07-26T22:35:04.815Z,47.48
2022-07-26T22:37:32.477Z,47.71
2022-07-26T22:40:00.203Z,48.00
2022-07-26T22:42:28.045Z,48.24
2022-07-26T22:44:55.731Z,48.09
2022-07-26T22:47:23.494Z,47.86
2022-07-26T22:49:52.162Z,47.57
2022-07-26T22:52:19.949Z,47.53
2022-07-26T22:54:47.677Z,47.47
2022-07-26T22:57:15.620Z,47.36
2022-07-26T22:59:43.290Z,47.38
2022-07-26T23:02:10.985Z,46.92
2022-07-26T23:04:38.660Z,46.78
2022-07-26T23:07:06.890Z,46.87
2022-07-26T23:09:36.219Z,46.90
2022-07-26T23:12:03.953Z,47.32
2022-07-26T23:14:31.723Z,47.69
2022-07-26T23:16:59.620Z,47.65
2022-07-26T23:19:27.402Z,47.60
2022-07-26T23:21:55.084Z,47.74
2022-07-26T23:24:23.058Z,47.97
2022-07-26T23:26:50.854Z,48.27
2022-07-26T23:29:18.541Z,48.30
2022-07-26T23:31:46.388Z,48.05
2022-07-26T23:34:14.228Z,48.09
2022-07-26T23:36:42.060Z,48.07
2022-07-26T23:39:10.076Z,48.55
2022-07-26T23:41:38.039Z,49.33
2022-07-26T23:44:05.835Z,49.73
2022-07-26T23:46:33.728Z,50.14
2022-07-26T23:49:01.521Z,50.18
2022-07-26T23:51:29.247Z,50.43
2022-07-26T23:53:56.942Z,50.89
2022-07-26T23:56:24.787Z,51.19
2022-07-26T23:58:52.574Z,51.57
